Osseo, MI (49266)

2:39 AM EDT on July 01, 2015 (GMT -0400)
Hillsdale Municipal | | Change Station
CLOSE
Current Station
Airport
Location: Hillsdale,
Elevation: 1181 ft
Nearby Weather Stations

Elev 1181 ft 41.92 °N, 84.59 °W | Updated 4 minutes ago

Mostly Cloudy
Mostly Cloudy
61 °F
Feels Like 61 °F
N
8
Wind Variable Wind from WNW

Today
High -- | Low -- °F
--% Chance of Precip.
Yesterday
High -- | Low -- °F
Precip. -- in
6:06 AM 9:17 PM
Waxing Gibbous, 99% visible
Pressure 29.84 in
Visibility 5.0 miles
Clouds Overcast 1100 ft
Dew Point 61 °F
Humidity 100%
Rainfall 0.00 in
Snow Depth Not available.
UV 0 out of 12
Pollen 3.30 out of 12
Air Quality Not available.
Flu Activity Not available.
METAR KJYM 010635Z AUTO 30007KT 5SM BR OVC011 16/16 A2984 RMK AO2 T01620162

More Conditions Fewer Conditions

Pressure 29.84 in
Visibility 5.0 miles
Clouds Overcast 1100 ft
Dew Point 61 °F
Humidity 100%
Rainfall 0.00 in
Snow Depth Not available.
UV 0 out of 12
Pollen 3.30 out of 12
Air Quality Not available.
Flu Activity Not available.
METAR KJYM 010635Z AUTO 30007KT 5SM BR OVC011 16/16 A2984 RMK AO2 T01620162

More Conditions Fewer Conditions

10-Day Weather Forecast

×

Almanac

Astronomy

Jul. 01, 2015 Rise Set
Actual Time
Civil Twilight
Nautical Twilight
Astronomical Twilight
Moon
Length of Visible Light
Length of Day
Tomorrow will be .
, % of the Moon is Illuminated

Today's Extremes

State Highs State Lows

Community

WunderPhotos

Upload Photos

1,834,158 photos uploaded!

WunderBlogs® & News

Nearby

Air Quality

  Air Quality AQ Index Pollutant
Not available.

Snow Depth

Station Depth Elevation

Earthquake Activity

City Distance Mag. Time & Date
Minimum magnitude displayed is 2.5.

Coastal Water Temperatures

Place Temperature

Stations

Nearby Weather Stations

Station Location Temp. Windchill Dew Point Humidity Wind Precip. Elev Updated Type